sensor_id;sensor_type;location;lat;lon;timestamp;temperature;humidity
26703;DHT22;14316;51.074;3.704;2023-04-08T00:01:19;9.30;99.90
26703;DHT22;14316;51.074;3.704;2023-04-08T00:03:45;9.30;99.90
26703;DHT22;14316;51.074;3.704;2023-04-08T00:06:11;9.20;99.90
26703;DHT22;14316;51.074;3.704;2023-04-08T00:08:38;9.20;99.90
26703;DHT22;14316;51.074;3.704;2023-04-08T00:11:04;9.20;99.90
26703;DHT22;14316;51.074;3.704;2023-04-08T00:13:30;9.30;99.90
26703;DHT22;14316;51.074;3.704;2023-04-08T00:15:56;9.40;99.90
26703;DHT22;14316;51.074;3.704;2023-04-08T00:18:22;9.50;99.90
26703;DHT22;14316;51.074;3.704;2023-04-08T00:20:49;9.40;99.90
26703;DHT22;14316;51.074;3.704;2023-04-08T00:23:15;9.50;99.90
26703;DHT22;14316;51.074;3.704;2023-04-08T00:25:41;9.50;99.90
26703;DHT22;14316;51.074;3.704;2023-04-08T00:28:07;9.40;99.90
26703;DHT22;14316;51.074;3.704;2023-04-08T00:30:33;9.40;99.90
26703;DHT22;14316;51.074;3.704;2023-04-08T00:33:00;9.30;99.90
26703;DHT22;14316;51.074;3.704;2023-04-08T00:35:26;9.20;99.90
26703;DHT22;14316;51.074;3.704;2023-04-08T00:37:52;9.20;99.90
26703;DHT22;14316;51.074;3.704;2023-04-08T00:40:18;9.10;99.90
26703;DHT22;14316;51.074;3.704;2023-04-08T00:42:45;9.20;99.90
26703;DHT22;14316;51.074;3.704;2023-04-08T00:45:12;9.00;99.90
26703;DHT22;14316;51.074;3.704;2023-04-08T00:47:38;9.00;99.90
26703;DHT22;14316;51.074;3.704;2023-04-08T00:50:07;9.00;99.90
26703;DHT22;14316;51.074;3.704;2023-04-08T00:52:35;9.00;99.90
26703;DHT22;14316;51.074;3.704;2023-04-08T00:55:02;9.10;99.90
26703;DHT22;14316;51.074;3.704;2023-04-08T00:57:28;9.20;99.90
26703;DHT22;14316;51.074;3.704;2023-04-08T00:59:54;9.20;99.90
26703;DHT22;14316;51.074;3.704;2023-04-08T01:05:05;9.40;99.90
26703;DHT22;14316;51.074;3.704;2023-04-08T01:07:35;9.50;99.90
26703;DHT22;14316;51.074;3.704;2023-04-08T01:10:29;9.50;99.90
26703;DHT22;14316;51.074;3.704;2023-04-08T01:13:07;9.40;99.90
26703;DHT22;14316;51.074;3.704;2023-04-08T01:15:37;9.30;99.90
26703;DHT22;14316;51.074;3.704;2023-04-08T01:18:07;9.20;99.90
26703;DHT22;14316;51.074;3.704;2023-04-08T01:20:34;9.20;99.90
26703;DHT22;14316;51.074;3.704;2023-04-08T01:23:09;9.20;99.90
26703;DHT22;14316;51.074;3.704;2023-04-08T01:25:38;9.20;99.90
26703;DHT22;14316;51.074;3.704;2023-04-08T01:28:14;9.20;99.90
26703;DHT22;14316;51.074;3.704;2023-04-08T01:30:42;9.20;99.90
26703;DHT22;14316;51.074;3.704;2023-04-08T01:33:10;9.20;99.90
26703;DHT22;14316;51.074;3.704;2023-04-08T01:35:37;9.20;99.90
26703;DHT22;14316;51.074;3.704;2023-04-08T01:38:06;9.30;99.90
26703;DHT22;14316;51.074;3.704;2023-04-08T01:40:34;9.40;99.90
26703;DHT22;14316;51.074;3.704;2023-04-08T01:43:01;9.60;99.90
26703;DHT22;14316;51.074;3.704;2023-04-08T01:45:28;9.70;99.90
26703;DHT22;14316;51.074;3.704;2023-04-08T01:47:56;9.80;99.90
26703;DHT22;14316;51.074;3.704;2023-04-08T01:50:24;9.90;99.90
26703;DHT22;14316;51.074;3.704;2023-04-08T01:52:52;9.90;99.90
26703;DHT22;14316;51.074;3.704;2023-04-08T01:55:19;10.00;99.90
26703;DHT22;14316;51.074;3.704;2023-04-08T01:57:50;10.00;99.90
26703;DHT22;14316;51.074;3.704;2023-04-08T02:00:25;10.10;99.90
26703;DHT22;14316;51.074;3.704;2023-04-08T02:02:53;10.00;99.90
26703;DHT22;14316;51.074;3.704;2023-04-08T02:05:20;9.90;99.90
26703;DHT22;14316;51.074;3.704;2023-04-08T02:07:47;9.80;99.90
26703;DHT22;14316;51.074;3.704;2023-04-08T02:10:13;9.70;99.90
26703;DHT22;14316;51.074;3.704;2023-04-08T02:12:40;9.60;99.90
26703;DHT22;14316;51.074;3.704;2023-04-08T02:15:07;9.50;99.90
26703;DHT22;14316;51.074;3.704;2023-04-08T02:20:56;9.50;99.90
26703;DHT22;14316;51.074;3.704;2023-04-08T02:23:19;9.50;99.90
26703;DHT22;14316;51.074;3.704;2023-04-08T02:25:45;9.60;99.90
26703;DHT22;14316;51.074;3.704;2023-04-08T02:28:13;9.50;99.90
26703;DHT22;14316;51.074;3.704;2023-04-08T02:30:48;9.40;99.90
26703;DHT22;14316;51.074;3.704;2023-04-08T02:33:20;9.30;99.90
26703;DHT22;14316;51.074;3.704;2023-04-08T02:35:49;9.40;99.90
26703;DHT22;14316;51.074;3.704;2023-04-08T02:38:16;9.60;99.90
26703;DHT22;14316;51.074;3.704;2023-04-08T02:40:42;9.60;99.90
26703;DHT22;14316;51.074;3.704;2023-04-08T02:43:08;9.70;99.90
26703;DHT22;14316;51.074;3.704;2023-04-08T02:45:40;9.70;99.90
26703;DHT22;14316;51.074;3.704;2023-04-08T02:48:07;9.70;99.90
26703;DHT22;14316;51.074;3.704;2023-04-08T02:50:33;9.60;99.90
26703;DHT22;14316;51.074;3.704;2023-04-08T02:52:59;9.70;99.90
26703;DHT22;14316;51.074;3.704;2023-04-08T02:55:25;9.80;99.90
26703;DHT22;14316;51.074;3.704;2023-04-08T02:57:52;10.00;99.90
26703;DHT22;14316;51.074;3.704;2023-04-08T03:00:18;10.20;99.90
26703;DHT22;14316;51.074;3.704;2023-04-08T03:02:44;10.20;99.90
26703;DHT22;14316;51.074;3.704;2023-04-08T03:05:10;10.10;99.90
26703;DHT22;14316;51.074;3.704;2023-04-08T03:07:36;10.00;99.90
26703;DHT22;14316;51.074;3.704;2023-04-08T03:10:02;9.80;99.90
26703;DHT22;14316;51.074;3.704;2023-04-08T03:12:29;9.70;99.90
26703;DHT22;14316;51.074;3.704;2023-04-08T03:14:56;9.60;99.90
26703;DHT22;14316;51.074;3.704;2023-04-08T03:17:22;9.60;99.90
26703;DHT22;14316;51.074;3.704;2023-04-08T03:19:48;9.60;99.90
26703;DHT22;14316;51.074;3.704;2023-04-08T03:22:14;9.40;99.90
26703;DHT22;14316;51.074;3.704;2023-04-08T03:24:40;9.40;99.90
26703;DHT22;14316;51.074;3.704;2023-04-08T03:27:07;9.40;99.90
26703;DHT22;14316;51.074;3.704;2023-04-08T03:29:33;9.40;99.90
26703;DHT22;14316;51.074;3.704;2023-04-08T03:31:59;9.30;99.90
26703;DHT22;14316;51.074;3.704;2023-04-08T03:34:25;9.20;99.90
26703;DHT22;14316;51.074;3.704;2023-04-08T03:36:52;9.20;99.90
26703;DHT22;14316;51.074;3.704;2023-04-08T03:39:18;9.10;99.90
26703;DHT22;14316;51.074;3.704;2023-04-08T03:41:44;9.00;99.90
26703;DHT22;14316;51.074;3.704;2023-04-08T03:44:10;9.00;99.90
26703;DHT22;14316;51.074;3.704;2023-04-08T03:46:36;9.00;99.90
26703;DHT22;14316;51.074;3.704;2023-04-08T03:49:02;8.90;99.90
26703;DHT22;14316;51.074;3.704;2023-04-08T03:51:28;8.90;99.90
26703;DHT22;14316;51.074;3.704;2023-04-08T03:53:55;8.90;99.90
26703;DHT22;14316;51.074;3.704;2023-04-08T03:56:21;8.80;99.90
26703;DHT22;14316;51.074;3.704;2023-04-08T03:58:47;8.80;99.90
26703;DHT22;14316;51.074;3.704;2023-04-08T04:01:13;8.80;99.90
26703;DHT22;14316;51.074;3.704;2023-04-08T04:03:39;8.90;99.90
26703;DHT22;14316;51.074;3.704;2023-04-08T04:06:06;9.10;99.90
26703;DHT22;14316;51.074;3.704;2023-04-08T04:08:32;9.30;99.90
26703;DHT22;14316;51.074;3.704;2023-04-08T04:10:58;9.70;99.90
26703;DHT22;14316;51.074;3.704;2023-04-08T04:13:24;10.00;99.90
26703;DHT22;14316;51.074;3.704;2023-04-08T04:15:51;10.20;99.90
26703;DHT22;14316;51.074;3.704;2023-04-08T04:18:17;10.40;99.90
26703;DHT22;14316;51.074;3.704;2023-04-08T04:20:43;10.60;99.90
26703;DHT22;14316;51.074;3.704;2023-04-08T04:23:09;10.80;99.90
26703;DHT22;14316;51.074;3.704;2023-04-08T04:25:35;10.90;99.90
26703;DHT22;14316;51.074;3.704;2023-04-08T04:28:01;10.70;99.90
26703;DHT22;14316;51.074;3.704;2023-04-08T04:30:28;10.40;99.90
26703;DHT22;14316;51.074;3.704;2023-04-08T04:32:54;10.20;99.90
26703;DHT22;14316;51.074;3.704;2023-04-08T04:35:20;10.00;99.90
26703;DHT22;14316;51.074;3.704;2023-04-08T04:37:47;9.80;99.90
26703;DHT22;14316;51.074;3.704;2023-04-08T04:40:14;9.70;99.90
26703;DHT22;14316;51.074;3.704;2023-04-08T04:42:40;9.60;99.90
26703;DHT22;14316;51.074;3.704;2023-04-08T04:45:07;9.70;99.90
26703;DHT22;14316;51.074;3.704;2023-04-08T04:47:34;9.70;99.90
26703;DHT22;14316;51.074;3.704;2023-04-08T04:50:00;9.60;99.90
26703;DHT22;14316;51.074;3.704;2023-04-08T04:52:26;9.60;99.90
26703;DHT22;14316;51.074;3.704;2023-04-08T04:54:52;9.60;99.90
26703;DHT22;14316;51.074;3.704;2023-04-08T04:57:18;9.70;99.90
26703;DHT22;14316;51.074;3.704;2023-04-08T04:59:44;9.90;99.90
26703;DHT22;14316;51.074;3.704;2023-04-08T05:02:10;9.90;99.90
26703;DHT22;14316;51.074;3.704;2023-04-08T05:04:36;9.90;99.90
26703;DHT22;14316;51.074;3.704;2023-04-08T05:07:02;9.80;99.90
26703;DHT22;14316;51.074;3.704;2023-04-08T05:09:28;9.70;99.90
26703;DHT22;14316;51.074;3.704;2023-04-08T05:11:57;9.60;99.90
26703;DHT22;14316;51.074;3.704;2023-04-08T05:14:23;9.60;99.90
26703;DHT22;14316;51.074;3.704;2023-04-08T05:16:50;9.50;99.90
26703;DHT22;14316;51.074;3.704;2023-04-08T05:19:16;9.50;99.90
26703;DHT22;14316;51.074;3.704;2023-04-08T05:21:42;9.60;99.90
26703;DHT22;14316;51.074;3.704;2023-04-08T05:24:08;9.60;99.90
26703;DHT22;14316;51.074;3.704;2023-04-08T05:26:36;9.60;99.90
26703;DHT22;14316;51.074;3.704;2023-04-08T05:29:02;9.60;99.90
26703;DHT22;14316;51.074;3.704;2023-04-08T05:31:28;9.70;99.90
26703;DHT22;14316;51.074;3.704;2023-04-08T05:33:54;9.70;99.90
26703;DHT22;14316;51.074;3.704;2023-04-08T05:36:20;9.70;99.90
26703;DHT22;14316;51.074;3.704;2023-04-08T05:38:47;9.70;99.90
26703;DHT22;14316;51.074;3.704;2023-04-08T05:41:13;9.70;99.90
26703;DHT22;14316;51.074;3.704;2023-04-08T05:43:39;9.60;99.90
26703;DHT22;14316;51.074;3.704;2023-04-08T05:46:06;9.50;99.90
26703;DHT22;14316;51.074;3.704;2023-04-08T05:48:32;9.50;99.90
26703;DHT22;14316;51.074;3.704;2023-04-08T05:50:59;9.60;99.90
26703;DHT22;14316;51.074;3.704;2023-04-08T05:53:25;9.60;99.90
26703;DHT22;14316;51.074;3.704;2023-04-08T05:55:51;9.70;99.90
26703;DHT22;14316;51.074;3.704;2023-04-08T05:58:17;9.90;99.90
26703;DHT22;14316;51.074;3.704;2023-04-08T06:00:43;9.90;99.90
26703;DHT22;14316;51.074;3.704;2023-04-08T06:03:10;9.90;99.90
26703;DHT22;14316;51.074;3.704;2023-04-08T06:05:35;9.80;99.90
26703;DHT22;14316;51.074;3.704;2023-04-08T06:08:01;9.90;99.90
26703;DHT22;14316;51.074;3.704;2023-04-08T06:10:27;9.90;99.90
26703;DHT22;14316;51.074;3.704;2023-04-08T06:12:53;10.00;99.90
26703;DHT22;14316;51.074;3.704;2023-04-08T06:15:20;10.10;99.90
26703;DHT22;14316;51.074;3.704;2023-04-08T06:17:46;10.20;99.90
26703;DHT22;14316;51.074;3.704;2023-04-08T06:20:11;10.40;99.90
26703;DHT22;14316;51.074;3.704;2023-04-08T06:22:37;10.70;99.90
26703;DHT22;14316;51.074;3.704;2023-04-08T06:25:03;11.00;99.90
26703;DHT22;14316;51.074;3.704;2023-04-08T06:27:30;11.20;99.90
26703;DHT22;14316;51.074;3.704;2023-04-08T06:29:56;11.10;99.90
26703;DHT22;14316;51.074;3.704;2023-04-08T06:32:22;10.80;99.90
26703;DHT22;14316;51.074;3.704;2023-04-08T06:34:48;10.60;99.90
26703;DHT22;14316;51.074;3.704;2023-04-08T06:37:13;10.50;99.90
26703;DHT22;14316;51.074;3.704;2023-04-08T06:39:40;10.40;99.90
26703;DHT22;14316;51.074;3.704;2023-04-08T06:42:06;10.30;99.90
26703;DHT22;14316;51.074;3.704;2023-04-08T06:44:32;10.40;99.90
26703;DHT22;14316;51.074;3.704;2023-04-08T06:46:58;10.60;99.90
26703;DHT22;14316;51.074;3.704;2023-04-08T06:49:23;10.70;99.90
26703;DHT22;14316;51.074;3.704;2023-04-08T06:51:51;10.80;99.90
26703;DHT22;14316;51.074;3.704;2023-04-08T06:54:17;11.00;99.90
26703;DHT22;14316;51.074;3.704;2023-04-08T06:56:43;11.00;99.90
26703;DHT22;14316;51.074;3.704;2023-04-08T06:59:08;10.90;99.90
26703;DHT22;14316;51.074;3.704;2023-04-08T07:01:34;10.90;99.90
26703;DHT22;14316;51.074;3.704;2023-04-08T07:04:00;11.10;99.90
26703;DHT22;14316;51.074;3.704;2023-04-08T07:06:26;11.30;99.90
26703;DHT22;14316;51.074;3.704;2023-04-08T07:08:53;11.60;99.90
26703;DHT22;14316;51.074;3.704;2023-04-08T07:11:18;11.80;99.90
26703;DHT22;14316;51.074;3.704;2023-04-08T07:13:44;11.80;99.90
26703;DHT22;14316;51.074;3.704;2023-04-08T07:16:10;11.70;99.90
26703;DHT22;14316;51.074;3.704;2023-04-08T07:18:36;11.60;99.90
26703;DHT22;14316;51.074;3.704;2023-04-08T07:21:02;11.50;99.90
26703;DHT22;14316;51.074;3.704;2023-04-08T07:23:28;11.40;99.90
26703;DHT22;14316;51.074;3.704;2023-04-08T07:25:53;11.20;99.90
26703;DHT22;14316;51.074;3.704;2023-04-08T07:28:19;11.20;99.90
26703;DHT22;14316;51.074;3.704;2023-04-08T07:30:45;11.10;99.90
26703;DHT22;14316;51.074;3.704;2023-04-08T07:33:12;11.20;99.90
26703;DHT22;14316;51.074;3.704;2023-04-08T07:35:38;11.10;99.90
26703;DHT22;14316;51.074;3.704;2023-04-08T07:38:03;10.90;99.90
26703;DHT22;14316;51.074;3.704;2023-04-08T07:40:33;10.70;99.90
26703;DHT22;14316;51.074;3.704;2023-04-08T07:42:59;10.70;99.90
26703;DHT22;14316;51.074;3.704;2023-04-08T07:45:25;10.70;99.90
26703;DHT22;14316;51.074;3.704;2023-04-08T07:47:50;10.80;99.90
26703;DHT22;14316;51.074;3.704;2023-04-08T07:50:16;10.70;99.90
26703;DHT22;14316;51.074;3.704;2023-04-08T07:52:43;10.60;99.90
26703;DHT22;14316;51.074;3.704;2023-04-08T07:55:09;10.60;99.90
26703;DHT22;14316;51.074;3.704;2023-04-08T07:57:35;10.50;99.90
26703;DHT22;14316;51.074;3.704;2023-04-08T08:00:01;10.70;99.90
26703;DHT22;14316;51.074;3.704;2023-04-08T08:02:28;10.90;99.90
26703;DHT22;14316;51.074;3.704;2023-04-08T08:04:54;11.20;99.90
26703;DHT22;14316;51.074;3.704;2023-04-08T08:07:20;11.40;99.90
26703;DHT22;14316;51.074;3.704;2023-04-08T08:09:46;11.60;99.90
26703;DHT22;14316;51.074;3.704;2023-04-08T08:12:12;11.50;99.90
26703;DHT22;14316;51.074;3.704;2023-04-08T08:14:37;11.50;99.90
26703;DHT22;14316;51.074;3.704;2023-04-08T08:17:03;11.50;99.90
26703;DHT22;14316;51.074;3.704;2023-04-08T08:19:29;11.60;99.90
26703;DHT22;14316;51.074;3.704;2023-04-08T08:21:55;11.60;99.90
26703;DHT22;14316;51.074;3.704;2023-04-08T08:24:21;11.80;99.90
26703;DHT22;14316;51.074;3.704;2023-04-08T08:26:47;11.80;99.90
26703;DHT22;14316;51.074;3.704;2023-04-08T08:29:13;11.90;99.90
26703;DHT22;14316;51.074;3.704;2023-04-08T08:31:39;12.10;99.90
26703;DHT22;14316;51.074;3.704;2023-04-08T08:34:05;12.30;99.90
26703;DHT22;14316;51.074;3.704;2023-04-08T08:36:31;12.40;99.90
26703;DHT22;14316;51.074;3.704;2023-04-08T08:38:56;12.50;99.90
26703;DHT22;14316;51.074;3.704;2023-04-08T08:41:25;12.60;99.90
26703;DHT22;14316;51.074;3.704;2023-04-08T08:43:50;12.40;99.90
26703;DHT22;14316;51.074;3.704;2023-04-08T08:46:17;12.40;99.90
26703;DHT22;14316;51.074;3.704;2023-04-08T08:48:45;12.60;99.90
26703;DHT22;14316;51.074;3.704;2023-04-08T08:51:12;12.70;99.90
26703;DHT22;14316;51.074;3.704;2023-04-08T08:53:41;12.70;99.90
26703;DHT22;14316;51.074;3.704;2023-04-08T08:56:10;12.70;99.90
26703;DHT22;14316;51.074;3.704;2023-04-08T08:58:36;12.80;99.90
26703;DHT22;14316;51.074;3.704;2023-04-08T09:04:16;12.90;99.90
26703;DHT22;14316;51.074;3.704;2023-04-08T09:06:45;13.20;99.90
26703;DHT22;14316;51.074;3.704;2023-04-08T09:09:11;13.30;99.90
26703;DHT22;14316;51.074;3.704;2023-04-08T09:11:42;13.20;99.90
26703;DHT22;14316;51.074;3.704;2023-04-08T09:14:20;13.20;99.90
26703;DHT22;14316;51.074;3.704;2023-04-08T09:16:46;13.30;99.90
26703;DHT22;14316;51.074;3.704;2023-04-08T09:19:12;13.10;99.90
26703;DHT22;14316;51.074;3.704;2023-04-08T09:21:39;12.90;99.90
26703;DHT22;14316;51.074;3.704;2023-04-08T09:24:07;13.00;99.90
26703;DHT22;14316;51.074;3.704;2023-04-08T09:26:33;13.00;99.90
26703;DHT22;14316;51.074;3.704;2023-04-08T09:29:02;13.30;99.90
26703;DHT22;14316;51.074;3.704;2023-04-08T09:31:30;13.40;99.90
26703;DHT22;14316;51.074;3.704;2023-04-08T09:33:59;13.50;99.90
26703;DHT22;14316;51.074;3.704;2023-04-08T09:36:27;13.50;99.90
26703;DHT22;14316;51.074;3.704;2023-04-08T09:38:54;13.20;99.90
26703;DHT22;14316;51.074;3.704;2023-04-08T09:41:21;13.10;99.90
26703;DHT22;14316;51.074;3.704;2023-04-08T09:43:53;13.10;99.90
26703;DHT22;14316;51.074;3.704;2023-04-08T09:46:24;13.00;99.90
26703;DHT22;14316;51.074;3.704;2023-04-08T09:51:23;12.80;99.90
26703;DHT22;14316;51.074;3.704;2023-04-08T09:53:55;12.90;99.90
26703;DHT22;14316;51.074;3.704;2023-04-08T09:56:28;12.80;99.90
26703;DHT22;14316;51.074;3.704;2023-04-08T09:59:02;12.50;99.90
26703;DHT22;14316;51.074;3.704;2023-04-08T10:01:38;12.30;99.90
26703;DHT22;14316;51.074;3.704;2023-04-08T10:04:09;12.30;99.90
26703;DHT22;14316;51.074;3.704;2023-04-08T10:06:37;12.20;99.90
26703;DHT22;14316;51.074;3.704;2023-04-08T10:09:05;12.30;99.90
26703;DHT22;14316;51.074;3.704;2023-04-08T10:11:32;12.40;99.90
26703;DHT22;14316;51.074;3.704;2023-04-08T10:13:59;12.40;99.90
26703;DHT22;14316;51.074;3.704;2023-04-08T10:16:26;12.50;99.90
26703;DHT22;14316;51.074;3.704;2023-04-08T10:18:53;12.60;99.90
26703;DHT22;14316;51.074;3.704;2023-04-08T10:24:08;12.80;99.90
26703;DHT22;14316;51.074;3.704;2023-04-08T10:26:42;13.10;99.90
26703;DHT22;14316;51.074;3.704;2023-04-08T10:34:20;13.30;99.90
26703;DHT22;14316;51.074;3.704;2023-04-08T10:36:47;13.40;99.90
26703;DHT22;14316;51.074;3.704;2023-04-08T10:39:15;13.20;99.90
26703;DHT22;14316;51.074;3.704;2023-04-08T10:41:45;13.20;99.90
26703;DHT22;14316;51.074;3.704;2023-04-08T10:44:19;13.30;99.90
26703;DHT22;14316;51.074;3.704;2023-04-08T10:46:46;13.10;99.90
26703;DHT22;14316;51.074;3.704;2023-04-08T10:49:16;13.00;99.90
26703;DHT22;14316;51.074;3.704;2023-04-08T10:51:43;13.00;99.90
26703;DHT22;14316;51.074;3.704;2023-04-08T10:54:11;13.10;99.90
26703;DHT22;14316;51.074;3.704;2023-04-08T10:59:13;13.40;99.90
26703;DHT22;14316;51.074;3.704;2023-04-08T11:01:42;13.40;99.90
26703;DHT22;14316;51.074;3.704;2023-04-08T11:04:13;13.30;99.90
26703;DHT22;14316;51.074;3.704;2023-04-08T11:06:41;13.40;99.90
26703;DHT22;14316;51.074;3.704;2023-04-08T11:09:08;13.60;99.90
26703;DHT22;14316;51.074;3.704;2023-04-08T11:11:34;13.80;99.90
26703;DHT22;14316;51.074;3.704;2023-04-08T11:14:00;13.90;99.90
26703;DHT22;14316;51.074;3.704;2023-04-08T11:16:27;14.10;99.90
26703;DHT22;14316;51.074;3.704;2023-04-08T11:18:54;14.00;99.90
26703;DHT22;14316;51.074;3.704;2023-04-08T11:21:24;14.00;99.90
26703;DHT22;14316;51.074;3.704;2023-04-08T11:23:54;13.90;99.90
26703;DHT22;14316;51.074;3.704;2023-04-08T11:26:21;14.00;99.90
26703;DHT22;14316;51.074;3.704;2023-04-08T11:28:47;14.30;99.90
26703;DHT22;14316;51.074;3.704;2023-04-08T11:31:17;14.20;99.90
26703;DHT22;14316;51.074;3.704;2023-04-08T11:33:48;14.30;99.90
26703;DHT22;14316;51.074;3.704;2023-04-08T11:36:16;14.40;99.90
26703;DHT22;14316;51.074;3.704;2023-04-08T11:38:43;14.30;99.90
26703;DHT22;14316;51.074;3.704;2023-04-08T11:41:09;14.20;99.90
26703;DHT22;14316;51.074;3.704;2023-04-08T11:43:37;13.90;99.90
26703;DHT22;14316;51.074;3.704;2023-04-08T11:46:09;13.90;99.90
26703;DHT22;14316;51.074;3.704;2023-04-08T11:48:36;13.90;99.90
26703;DHT22;14316;51.074;3.704;2023-04-08T11:51:04;14.00;99.90
26703;DHT22;14316;51.074;3.704;2023-04-08T11:53:34;14.20;99.90
26703;DHT22;14316;51.074;3.704;2023-04-08T11:56:20;14.10;99.90
26703;DHT22;14316;51.074;3.704;2023-04-08T11:58:47;14.10;99.90
26703;DHT22;14316;51.074;3.704;2023-04-08T12:01:13;14.10;99.90
26703;DHT22;14316;51.074;3.704;2023-04-08T12:03:52;14.10;99.90
26703;DHT22;14316;51.074;3.704;2023-04-08T12:06:17;14.20;99.90
26703;DHT22;14316;51.074;3.704;2023-04-08T12:08:43;14.10;99.90
26703;DHT22;14316;51.074;3.704;2023-04-08T12:11:09;14.10;99.90
26703;DHT22;14316;51.074;3.704;2023-04-08T12:13:36;14.00;99.90
26703;DHT22;14316;51.074;3.704;2023-04-08T12:16:02;13.90;99.90
26703;DHT22;14316;51.074;3.704;2023-04-08T12:18:28;13.90;99.90
26703;DHT22;14316;51.074;3.704;2023-04-08T12:20:54;13.90;99.90
26703;DHT22;14316;51.074;3.704;2023-04-08T12:23:21;14.00;99.90
26703;DHT22;14316;51.074;3.704;2023-04-08T12:25:47;14.30;99.90
26703;DHT22;14316;51.074;3.704;2023-04-08T12:28:13;14.90;99.90
26703;DHT22;14316;51.074;3.704;2023-04-08T12:30:39;15.10;99.90
26703;DHT22;14316;51.074;3.704;2023-04-08T12:33:05;15.40;99.90
26703;DHT22;14316;51.074;3.704;2023-04-08T12:35:31;15.50;99.90
26703;DHT22;14316;51.074;3.704;2023-04-08T12:37:58;15.50;99.90
26703;DHT22;14316;51.074;3.704;2023-04-08T12:40:24;15.50;99.90
26703;DHT22;14316;51.074;3.704;2023-04-08T12:42:50;15.10;99.90
26703;DHT22;14316;51.074;3.704;2023-04-08T12:45:16;15.10;99.90
26703;DHT22;14316;51.074;3.704;2023-04-08T12:47:43;15.00;99.90
26703;DHT22;14316;51.074;3.704;2023-04-08T12:50:09;15.00;99.90
26703;DHT22;14316;51.074;3.704;2023-04-08T12:52:35;15.10;99.90
26703;DHT22;14316;51.074;3.704;2023-04-08T12:55:01;15.30;99.90
26703;DHT22;14316;51.074;3.704;2023-04-08T12:57:27;15.40;99.90
26703;DHT22;14316;51.074;3.704;2023-04-08T12:59:54;15.70;99.90
26703;DHT22;14316;51.074;3.704;2023-04-08T13:02:20;16.10;99.90
26703;DHT22;14316;51.074;3.704;2023-04-08T13:04:46;16.40;99.90
26703;DHT22;14316;51.074;3.704;2023-04-08T13:07:14;16.70;99.90
26703;DHT22;14316;51.074;3.704;2023-04-08T13:09:40;16.90;99.90
26703;DHT22;14316;51.074;3.704;2023-04-08T13:12:06;17.00;99.90
26703;DHT22;14316;51.074;3.704;2023-04-08T13:14:32;17.40;99.90
26703;DHT22;14316;51.074;3.704;2023-04-08T13:16:58;17.80;99.90
26703;DHT22;14316;51.074;3.704;2023-04-08T13:19:27;18.10;99.90
26703;DHT22;14316;51.074;3.704;2023-04-08T13:21:53;18.40;99.90
26703;DHT22;14316;51.074;3.704;2023-04-08T13:24:20;18.30;99.90
26703;DHT22;14316;51.074;3.704;2023-04-08T13:26:46;18.60;99.90
26703;DHT22;14316;51.074;3.704;2023-04-08T13:29:12;18.60;99.90
26703;DHT22;14316;51.074;3.704;2023-04-08T13:31:38;18.60;99.90
26703;DHT22;14316;51.074;3.704;2023-04-08T13:34:03;18.90;99.90
26703;DHT22;14316;51.074;3.704;2023-04-08T13:36:29;18.90;99.90
26703;DHT22;14316;51.074;3.704;2023-04-08T13:38:56;19.90;99.90
26703;DHT22;14316;51.074;3.704;2023-04-08T13:41:22;21.10;99.90
26703;DHT22;14316;51.074;3.704;2023-04-08T13:43:49;21.70;99.90
26703;DHT22;14316;51.074;3.704;2023-04-08T13:46:15;22.50;99.90
26703;DHT22;14316;51.074;3.704;2023-04-08T13:48:42;24.20;99.90
26703;DHT22;14316;51.074;3.704;2023-04-08T13:51:08;23.70;99.90
26703;DHT22;14316;51.074;3.704;2023-04-08T13:53:34;22.20;99.90
26703;DHT22;14316;51.074;3.704;2023-04-08T13:56:01;20.80;99.90
26703;DHT22;14316;51.074;3.704;2023-04-08T13:58:27;20.30;99.90
26703;DHT22;14316;51.074;3.704;2023-04-08T14:00:53;20.80;99.90
26703;DHT22;14316;51.074;3.704;2023-04-08T14:03:19;22.60;99.90
26703;DHT22;14316;51.074;3.704;2023-04-08T14:05:45;25.90;99.90
26703;DHT22;14316;51.074;3.704;2023-04-08T14:08:11;29.20;99.90
26703;DHT22;14316;51.074;3.704;2023-04-08T14:10:38;30.20;91.20
26703;DHT22;14316;51.074;3.704;2023-04-08T14:13:06;29.00;88.80
26703;DHT22;14316;51.074;3.704;2023-04-08T14:15:32;27.00;89.60
26703;DHT22;14316;51.074;3.704;2023-04-08T14:17:58;24.20;92.90
26703;DHT22;14316;51.074;3.704;2023-04-08T14:20:24;21.40;96.60
26703;DHT22;14316;51.074;3.704;2023-04-08T14:22:50;19.70;99.90
26703;DHT22;14316;51.074;3.704;2023-04-08T14:25:16;19.30;99.90
26703;DHT22;14316;51.074;3.704;2023-04-08T14:27:42;19.30;99.90
26703;DHT22;14316;51.074;3.704;2023-04-08T14:30:09;19.30;99.90
26703;DHT22;14316;51.074;3.704;2023-04-08T14:32:35;18.80;99.90
26703;DHT22;14316;51.074;3.704;2023-04-08T14:35:01;18.20;99.90
26703;DHT22;14316;51.074;3.704;2023-04-08T14:37:27;18.60;99.90
26703;DHT22;14316;51.074;3.704;2023-04-08T14:39:54;18.40;99.90
26703;DHT22;14316;51.074;3.704;2023-04-08T14:42:20;18.30;99.90
26703;DHT22;14316;51.074;3.704;2023-04-08T14:44:47;18.00;99.90
26703;DHT22;14316;51.074;3.704;2023-04-08T14:47:13;17.80;99.90
26703;DHT22;14316;51.074;3.704;2023-04-08T14:49:38;17.40;99.90
26703;DHT22;14316;51.074;3.704;2023-04-08T14:52:05;16.90;99.90
26703;DHT22;14316;51.074;3.704;2023-04-08T14:54:31;16.50;99.90
26703;DHT22;14316;51.074;3.704;2023-04-08T14:56:57;16.20;99.90
26703;DHT22;14316;51.074;3.704;2023-04-08T14:59:23;16.10;99.90
26703;DHT22;14316;51.074;3.704;2023-04-08T15:01:49;16.00;99.90
26703;DHT22;14316;51.074;3.704;2023-04-08T15:04:15;15.80;99.90
26703;DHT22;14316;51.074;3.704;2023-04-08T15:06:41;15.80;99.90
26703;DHT22;14316;51.074;3.704;2023-04-08T15:09:08;16.00;99.90
26703;DHT22;14316;51.074;3.704;2023-04-08T15:11:34;16.70;99.90
26703;DHT22;14316;51.074;3.704;2023-04-08T15:14:01;18.00;99.90
26703;DHT22;14316;51.074;3.704;2023-04-08T15:16:27;19.00;99.90
26703;DHT22;14316;51.074;3.704;2023-04-08T15:18:53;20.60;99.90
26703;DHT22;14316;51.074;3.704;2023-04-08T15:21:19;22.10;99.90
26703;DHT22;14316;51.074;3.704;2023-04-08T15:23:47;22.70;99.90
26703;DHT22;14316;51.074;3.704;2023-04-08T15:26:13;22.90;99.90
26703;DHT22;14316;51.074;3.704;2023-04-08T15:28:39;23.30;99.90
26703;DHT22;14316;51.074;3.704;2023-04-08T15:31:06;24.80;99.90
26703;DHT22;14316;51.074;3.704;2023-04-08T15:33:31;26.00;99.40
26703;DHT22;14316;51.074;3.704;2023-04-08T15:36:00;26.00;97.90
26703;DHT22;14316;51.074;3.704;2023-04-08T15:38:30;25.40;95.70
26703;DHT22;14316;51.074;3.704;2023-04-08T15:40:58;25.20;96.70
26703;DHT22;14316;51.074;3.704;2023-04-08T15:43:24;26.20;99.50
26703;DHT22;14316;51.074;3.704;2023-04-08T15:45:50;27.10;98.30
26703;DHT22;14316;51.074;3.704;2023-04-08T15:48:16;26.90;96.10
26703;DHT22;14316;51.074;3.704;2023-04-08T15:50:43;25.80;94.90
26703;DHT22;14316;51.074;3.704;2023-04-08T15:53:09;24.30;96.10
26703;DHT22;14316;51.074;3.704;2023-04-08T15:55:38;22.70;98.20